Time;durP1;ratioP1;P1;durP2;ratioP2;P2;SDS_P1;SDS_P2;PMS_P1;PMS_P2;Temp;Humidity;BMP_temperature;BMP_pressure;BME280_temperature;BME280_humidity;BME280_pressure;Samples;Min_cycle;Max_cycle;Signal;HPM_P1;HPM_P2
2022/11/20 00:01:22;;;;;;;0.50;0.10;;;3.60;65.20;;;;;;6194211;23;20396;-78
2022/11/20 00:03:51;;;;;;;0.50;0.10;;;3.50;73.60;;;;;;6191465;23;20455;-76
2022/11/20 00:06:20;;;;;;;0.50;0.10;;;3.60;76.80;;;;;;6196702;23;20412;-76
2022/11/20 00:08:48;;;;;;;21.37;19.37;;;3.60;70.40;;;;;;6196278;23;20424;-77
2022/11/20 00:11:18;;;;;;;2.53;1.70;;;3.60;77.20;;;;;;6198018;23;20416;-77
2022/11/20 00:13:51;;;;;;;0.50;0.10;;;3.60;75.60;;;;;;6193013;23;20411;-75
2022/11/20 00:16:21;;;;;;;0.50;0.10;;;3.60;73.20;;;;;;6191274;23;20423;-76
2022/11/20 00:18:49;;;;;;;0.50;0.10;;;3.50;66.60;;;;;;6188328;23;20448;-76
2022/11/20 00:21:19;;;;;;;0.50;0.10;;;3.50;73.30;;;;;;6191105;23;20438;-78
2022/11/20 00:23:49;;;;;;;0.50;0.10;;;3.50;76.20;;;;;;6191343;23;20416;-76
2022/11/20 00:26:18;;;;;;;0.50;0.10;;;3.40;76.80;;;;;;6190869;23;20427;-77
2022/11/20 00:28:53;;;;;;;0.50;0.10;;;3.40;75.40;;;;;;6189859;23;20424;-78
2022/11/20 00:31:21;;;;;;;0.50;0.10;;;3.40;82.60;;;;;;6189428;23;20727;-77
2022/11/20 00:33:49;;;;;;;0.50;0.10;;;3.40;82.50;;;;;;6189518;23;20396;-77
2022/11/20 00:36:18;;;;;;;0.50;0.10;;;3.40;83.30;;;;;;6190719;23;20407;-77
2022/11/20 00:38:47;;;;;;;0.50;0.10;;;3.40;79.20;;;;;;6189573;23;20526;-76
2022/11/20 00:41:16;;;;;;;0.50;0.10;;;3.50;85.90;;;;;;6191310;23;20404;-78
2022/11/20 00:43:45;;;;;;;0.50;0.10;;;3.50;85.50;;;;;;6188925;23;20392;-76
2022/11/20 00:46:16;;;;;;;0.50;0.10;;;3.50;86.60;;;;;;6187572;23;20403;-77
2022/11/20 00:48:45;;;;;;;0.50;0.10;;;3.50;80.40;;;;;;6187287;23;20428;-76
2022/11/20 00:51:14;;;;;;;0.50;0.10;;;3.50;87.10;;;;;;6188184;23;20408;-76
2022/11/20 00:53:43;;;;;;;0.50;0.10;;;3.50;90.20;;;;;;6186580;23;20404;-77
2022/11/20 00:56:12;;;;;;;0.50;0.10;;;3.50;84.50;;;;;;6187902;23;20408;-75
2022/11/20 00:58:42;;;;;;;0.50;0.30;;;3.50;74.60;;;;;;6187832;23;20960;-75
2022/11/20 05:01:05;;;;;;;0.50;0.10;;;3.30;40.60;;;;;;6136968;23;20467;-77
2022/11/20 05:03:35;;;;;;;0.50;0.10;;;3.30;44.40;;;;;;6184921;23;20462;-78
2022/11/20 05:06:09;;;;;;;0.50;0.10;;;3.30;60.80;;;;;;6186622;23;20380;-78
2022/11/20 05:08:37;;;;;;;0.50;0.10;;;3.20;70.00;;;;;;6186570;23;20404;-77
2022/11/20 05:11:07;;;;;;;0.50;0.10;;;3.20;75.10;;;;;;6186019;23;20423;-77
2022/11/20 05:13:35;;;;;;;0.60;0.43;;;3.20;83.50;;;;;;6186896;23;20470;-78
2022/11/20 05:16:06;;;;;;;0.50;0.10;;;3.20;82.80;;;;;;6187637;23;20892;-77
2022/11/20 05:18:35;;;;;;;0.50;0.10;;;3.20;92.60;;;;;;6185664;23;20423;-77
2022/11/20 05:21:03;;;;;;;0.50;0.10;;;3.20;93.20;;;;;;6185498;23;20816;-77
2022/11/20 05:23:32;;;;;;;0.50;0.10;;;3.20;95.00;;;;;;6185569;23;20401;-77
2022/11/20 05:26:01;;;;;;;0.50;0.10;;;3.20;94.90;;;;;;6186157;23;20404;-77
2022/11/20 05:28:31;;;;;;;0.50;0.10;;;3.20;98.40;;;;;;6185897;23;20455;-77
2022/11/20 05:31:07;;;;;;;0.50;0.10;;;3.30;96.40;;;;;;6185491;23;20443;-77
2022/11/20 05:33:36;;;;;;;0.50;0.20;;;3.20;99.50;;;;;;6185926;23;20402;-77
2022/11/20 05:36:04;;;;;;;1.27;1.27;;;3.30;98.00;;;;;;6186003;23;20416;-77
2022/11/20 05:38:33;;;;;;;0.50;0.10;;;3.30;99.90;;;;;;6185513;23;20396;-77
2022/11/20 05:41:05;;;;;;;0.50;0.10;;;3.30;99.70;;;;;;6185404;23;20522;-77
2022/11/20 05:43:34;;;;;;;0.50;0.10;;;;;;;;;;6185371;23;20409;-74
2022/11/20 05:46:02;;;;;;;0.50;0.10;;;3.30;99.90;;;;;;6185968;23;20885;-77
2022/11/20 05:48:32;;;;;;;0.50;0.10;;;3.40;99.90;;;;;;6186070;23;20401;-77
2022/11/20 05:51:00;;;;;;;2.90;2.63;;;3.40;99.90;;;;;;6185095;23;20432;-77
2022/11/20 05:53:28;;;;;;;0.50;0.10;;;3.40;99.90;;;;;;6185235;23;20896;-77
2022/11/20 05:56:00;;;;;;;0.50;0.10;;;3.40;99.90;;;;;;6185461;23;20402;-77
2022/11/20 05:58:28;;;;;;;0.50;0.10;;;3.40;99.90;;;;;;6185324;23;20408;-77
2022/11/20 06:01:05;;;;;;;0.50;0.10;;;3.50;99.90;;;;;;6184716;23;20456;-77
2022/11/20 06:03:34;;;;;;;0.50;0.20;;;3.50;99.90;;;;;;6184931;23;20403;-77
2022/11/20 06:06:02;;;;;;;0.50;0.10;;;3.40;99.90;;;;;;6185623;23;20404;-76
2022/11/20 06:08:30;;;;;;;0.50;0.10;;;3.50;99.90;;;;;;6186165;23;20412;-77
2022/11/20 06:10:59;;;;;;;0.50;0.10;;;3.50;99.90;;;;;;6186016;23;20436;-77
2022/11/20 06:13:27;;;;;;;0.60;0.53;;;3.50;99.90;;;;;;6185613;23;20463;-76
2022/11/20 06:15:55;;;;;;;0.50;0.10;;;3.50;99.90;;;;;;6186014;23;20474;-77
2022/11/20 06:18:22;;;;;;;0.50;0.10;;;3.50;99.90;;;;;;6186738;23;20431;-77
2022/11/20 06:21:00;;;;;;;0.50;0.10;;;3.50;99.90;;;;;;6185439;23;20444;-77
2022/11/20 06:23:30;;;;;;;0.50;0.10;;;3.50;99.90;;;;;;6185328;23;20394;-77
2022/11/20 06:25:58;;;;;;;1.90;1.80;;;3.50;99.90;;;;;;6185579;23;20511;-77
2022/11/20 06:28:25;;;;;;;2.53;1.13;;;3.40;99.90;;;;;;6185235;23;20897;-77
2022/11/20 06:30:54;;;;;;;0.50;0.10;;;3.50;99.90;;;;;;6185777;23;20433;-77
2022/11/20 06:33:22;;;;;;;0.50;0.10;;;3.50;99.90;;;;;;6185351;23;20422;-77
2022/11/20 06:35:50;;;;;;;0.50;0.10;;;3.40;99.90;;;;;;6185851;23;20400;-77
2022/11/20 06:38:26;;;;;;;0.60;0.10;;;3.40;99.90;;;;;;6185181;23;20408;-77
2022/11/20 06:40:55;;;;;;;0.50;0.10;;;3.30;99.90;;;;;;6186368;23;20451;-78
2022/11/20 06:43:23;;;;;;;0.50;0.10;;;3.30;99.90;;;;;;6185657;23;20426;-77
2022/11/20 06:45:53;;;;;;;0.50;0.10;;;3.30;99.90;;;;;;6186188;23;20403;-77
2022/11/20 06:48:21;;;;;;;0.50;0.10;;;3.30;99.90;;;;;;6185369;23;20411;-77
2022/11/20 06:50:49;;;;;;;0.50;0.20;;;3.30;99.90;;;;;;6185281;23;20420;-77
2022/11/20 06:53:17;;;;;;;0.50;0.10;;;3.30;99.90;;;;;;6185432;23;20427;-76
2022/11/20 06:55:47;;;;;;;1.70;1.60;;;3.30;99.90;;;;;;6185394;23;20408;-76
2022/11/20 06:58:17;;;;;;;0.50;0.10;;;3.20;99.90;;;;;;6185513;23;20745;-77
2022/11/20 07:00:45;;;;;;;0.53;0.17;;;3.20;99.90;;;;;;6185780;23;20447;-76
2022/11/20 07:03:13;;;;;;;2.43;2.33;;;3.20;99.90;;;;;;6186392;23;20404;-77
2022/11/20 07:05:41;;;;;;;0.50;0.10;;;3.20;99.90;;;;;;6185192;23;20973;-77
2022/11/20 07:08:09;;;;;;;45.90;43.73;;;3.20;99.90;;;;;;6187197;23;20408;-75
2022/11/20 07:10:37;;;;;;;0.50;0.10;;;3.20;99.90;;;;;;6187078;23;20416;-77
2022/11/20 07:13:06;;;;;;;2.30;2.20;;;3.20;99.90;;;;;;6187415;23;20420;-77
2022/11/20 07:15:34;;;;;;;0.50;0.10;;;3.20;99.90;;;;;;6195374;23;20404;-76
2022/11/20 07:18:03;;;;;;;0.50;0.10;;;3.30;99.90;;;;;;6210537;23;20380;-75
2022/11/20 07:20:31;;;;;;;0.50;0.10;;;3.30;99.90;;;;;;6203551;23;20439;-77
2022/11/20 07:22:59;;;;;;;4.80;4.50;;;3.30;99.90;;;;;;6190015;23;20403;-76
2022/11/20 07:25:28;;;;;;;0.50;0.10;;;3.40;99.90;;;;;;6188833;23;20761;-77
2022/11/20 07:27:58;;;;;;;3.03;2.83;;;3.40;99.90;;;;;;6188317;23;20404;-76
2022/11/20 07:30:27;;;;;;;0.50;0.10;;;3.40;99.90;;;;;;6189092;23;20439;-76
2022/11/20 07:32:56;;;;;;;0.50;0.10;;;3.50;99.90;;;;;;6190364;23;20472;-78
2022/11/20 07:35:24;;;;;;;0.50;0.10;;;3.50;99.90;;;;;;6188955;23;20896;-77
2022/11/20 07:37:52;;;;;;;0.50;0.10;;;3.50;99.90;;;;;;6188508;23;20427;-77
2022/11/20 07:40:20;;;;;;;0.50;0.10;;;3.60;99.90;;;;;;6190313;23;20486;-79
2022/11/20 07:42:49;;;;;;;0.50;0.10;;;3.60;99.90;;;;;;6188711;23;20436;-76
2022/11/20 07:45:17;;;;;;;0.50;0.37;;;3.60;99.90;;;;;;6188245;23;20415;-78
2022/11/20 07:47:46;;;;;;;0.50;0.10;;;3.70;99.90;;;;;;6193790;23;20408;-78
2022/11/20 07:50:15;;;;;;;0.50;0.10;;;3.70;99.90;;;;;;6189619;23;20403;-77
2022/11/20 07:52:43;;;;;;;0.50;0.10;;;3.70;99.90;;;;;;6189788;23;20425;-78
2022/11/20 07:55:11;;;;;;;0.50;0.10;;;3.70;99.90;;;;;;6189817;23;20412;-75
2022/11/20 07:57:39;;;;;;;0.50;0.10;;;3.70;99.90;;;;;;6188379;23;20400;-77
2022/11/20 08:00:10;;;;;;;0.50;0.10;;;3.80;99.90;;;;;;6187702;23;20416;-78
2022/11/20 08:02:39;;;;;;;0.50;0.10;;;3.80;99.90;;;;;;6190140;23;20428;-78
2022/11/20 08:05:10;;;;;;;0.50;0.20;;;3.80;99.90;;;;;;6189038;23;20400;-79
2022/11/20 08:07:38;;;;;;;7.57;3.50;;;3.80;99.90;;;;;;6188622;23;20400;-78
2022/11/20 08:10:08;;;;;;;0.50;0.10;;;3.90;99.90;;;;;;6189774;23;20508;-78
2022/11/20 08:15:21;;;;;;;0.50;0.10;;;4.00;99.90;;;;;;6189088;23;20384;-77
2022/11/20 08:17:49;;;;;;;0.50;0.10;;;4.00;99.90;;;;;;6190597;23;20466;-76
2022/11/20 08:20:39;;;;;;;0.50;0.10;;;4.00;99.90;;;;;;6189666;23;20392;-78
2022/11/20 08:23:08;;;;;;;0.50;0.10;;;4.00;99.90;;;;;;6191745;23;20392;-77
2022/11/20 08:25:38;;;;;;;0.50;0.10;;;4.00;99.90;;;;;;6190728;23;20527;-77
2022/11/20 08:28:07;;;;;;;0.50;0.10;;;4.00;99.90;;;;;;6188766;23;20408;-77
2022/11/20 08:30:48;;;;;;;0.50;0.20;;;4.00;99.90;;;;;;6189815;23;20463;-76
2022/11/20 08:33:17;;;;;;;0.50;0.10;;;5.80;99.90;;;;;;6187462;23;20416;-79
2022/11/20 08:35:46;;;;;;;0.50;0.10;;;4.00;99.90;;;;;;6190380;23;20494;-77
2022/11/20 08:38:14;;;;;;;0.50;0.20;;;4.10;99.90;;;;;;6193254;23;20731;-78
2022/11/20 08:41:23;;;;;;;0.50;0.10;;;4.20;99.90;;;;;;6193320;23;20416;-79
2022/11/20 08:43:30;;;;;;;0.50;0.10;;;4.20;99.90;;;;;;6193659;23;20818;-78
2022/11/20 08:45:58;;;;;;;0.50;0.10;;;4.10;99.90;;;;;;6190843;23;20415;-78
2022/11/20 08:48:25;;;;;;;2.30;1.70;;;4.20;99.90;;;;;;6190771;23;20405;-77
2022/11/20 08:50:58;;;;;;;0.50;0.10;;;4.20;99.90;;;;;;6190591;23;20428;-77
2022/11/20 08:53:26;;;;;;;0.50;0.10;;;4.20;99.90;;;;;;6190373;23;20400;-76
2022/11/20 08:55:54;;;;;;;0.50;0.10;;;4.20;99.90;;;;;;6192821;23;20423;-77
2022/11/20 08:58:22;;;;;;;0.50;0.10;;;4.20;99.90;;;;;;6192028;23;20400;-76
2022/11/20 09:00:50;;;;;;;0.50;0.10;;;4.20;99.90;;;;;;6191304;23;20455;-77
2022/11/20 09:03:18;;;;;;;0.50;0.10;;;;;;;;;;6191541;23;20397;-76
2022/11/20 09:05:46;;;;;;;0.50;0.10;;;4.30;99.90;;;;;;6189663;23;20404;-76
2022/11/20 09:08:15;;;;;;;0.50;0.13;;;4.30;99.90;;;;;;6186851;23;20416;-76
2022/11/20 09:10:43;;;;;;;0.50;0.10;;;4.30;99.90;;;;;;6186399;23;20423;-77
2022/11/20 09:13:11;;;;;;;0.50;0.10;;;4.30;99.90;;;;;;6187055;23;20397;-76
2022/11/20 09:15:38;;;;;;;0.70;0.63;;;4.30;99.90;;;;;;6186610;23;20907;-76
2022/11/20 09:18:06;;;;;;;0.50;0.10;;;4.40;99.90;;;;;;6186684;23;20420;-76
2022/11/20 09:20:35;;;;;;;0.50;0.10;;;4.40;99.90;;;;;;6187816;23;20477;-75
2022/11/20 09:23:03;;;;;;;0.50;0.10;;;4.30;99.90;;;;;;6187090;23;20436;-75
2022/11/20 09:25:32;;;;;;;1.53;1.07;;;4.40;99.90;;;;;;6186054;23;20415;-76
2022/11/20 09:28:00;;;;;;;3.30;2.00;;;4.40;99.90;;;;;;6187507;23;20423;-74
2022/11/20 09:30:29;;;;;;;0.50;0.10;;;4.40;99.90;;;;;;6187998;23;20396;-77
2022/11/20 09:32:57;;;;;;;0.50;0.10;;;4.50;99.90;;;;;;6187271;23;20405;-77
2022/11/20 09:35:24;;;;;;;0.50;0.10;;;4.50;99.90;;;;;;6186928;23;20407;-74
2022/11/20 09:37:52;;;;;;;0.50;0.10;;;4.60;99.90;;;;;;6186279;23;20427;-75
2022/11/20 09:40:23;;;;;;;0.50;0.30;;;4.60;99.90;;;;;;6187740;23;20404;-75
2022/11/20 09:42:57;;;;;;;0.90;0.80;;;4.80;99.90;;;;;;6186493;23;20768;-74
2022/11/20 09:45:38;;;;;;;1.57;1.47;;;4.90;99.90;;;;;;6186886;23;20408;-77
2022/11/20 09:48:33;;;;;;;0.50;0.10;;;4.90;99.90;;;;;;6187544;23;20943;-77
2022/11/20 09:51:12;;;;;;;0.60;0.40;;;4.80;99.90;;;;;;6187565;23;20432;-77
2022/11/20 09:53:52;;;;;;;1.67;1.50;;;4.80;99.90;;;;;;6201756;23;20381;-76
2022/11/20 09:56:21;;;;;;;0.50;0.10;;;4.90;99.90;;;;;;6208976;23;20423;-76
2022/11/20 09:58:53;;;;;;;0.50;0.20;;;4.90;99.90;;;;;;6198185;23;20415;-74
2022/11/20 10:01:27;;;;;;;0.50;0.30;;;5.00;99.90;;;;;;6188486;23;20850;-74
2022/11/20 10:03:59;;;;;;;0.50;0.10;;;5.20;99.90;;;;;;6187866;23;20503;-79
2022/11/20 10:06:32;;;;;;;0.50;0.10;;;5.20;99.90;;;;;;6188711;23;20396;-78
2022/11/20 10:09:07;;;;;;;1.77;1.60;;;5.20;99.90;;;;;;6193565;23;20396;-78
2022/11/20 10:11:45;;;;;;;0.63;0.50;;;5.30;99.90;;;;;;6198081;23;20490;-77
2022/11/20 10:14:27;;;;;;;0.70;0.30;;;5.30;99.90;;;;;;6193069;23;20427;-78
2022/11/20 10:17:04;;;;;;;2.63;2.43;;;5.30;99.90;;;;;;6193112;23;20414;-77
2022/11/20 10:19:48;;;;;;;0.67;0.50;;;5.40;99.90;;;;;;6190377;23;20392;-77
2022/11/20 10:22:31;;;;;;;0.50;0.13;;;5.40;99.90;;;;;;6192709;23;20436;-77
2022/11/20 10:25:12;;;;;;;0.50;0.10;;;5.40;99.90;;;;;;6190366;23;20388;-78
2022/11/20 10:28:16;;;;;;;2.07;1.90;;;5.60;99.90;;;;;;6190082;23;20415;-77
2022/11/20 10:30:49;;;;;;;3.63;1.70;;;5.50;99.90;;;;;;6182225;23;20410;-78
2022/11/20 10:36:28;;;;;;;0.50;0.10;;;5.60;99.90;;;;;;6190823;23;20406;-77
2022/11/20 10:38:58;;;;;;;0.50;0.17;;;;;;;;;;6192693;23;20403;-77
2022/11/20 10:41:31;;;;;;;2.10;1.90;;;5.40;99.90;;;;;;6194282;23;20431;-76
2022/11/20 10:44:10;;;;;;;4.17;3.53;;;5.20;99.90;;;;;;6195615;23;20906;-77
2022/11/20 10:46:43;;;;;;;0.50;0.20;;;5.00;99.90;;;;;;6189529;23;20400;-79
2022/11/20 10:49:15;;;;;;;1.27;1.17;;;5.00;99.90;;;;;;6189615;23;20416;-78
2022/11/20 10:51:58;;;;;;;0.50;0.10;;;4.90;99.90;;;;;;6190682;23;20463;-77
2022/11/20 10:54:37;;;;;;;0.50;0.30;;;5.00;99.90;;;;;;6192144;23;20431;-77
2022/11/20 10:57:14;;;;;;;0.50;0.20;;;5.00;99.90;;;;;;6192633;23;20455;-76
2022/11/20 10:59:58;;;;;;;0.50;0.10;;;5.10;99.90;;;;;;6191056;23;20376;-77
2022/11/20 11:02:34;;;;;;;0.50;0.10;;;5.20;99.90;;;;;;6191699;23;20522;-77
2022/11/20 11:05:13;;;;;;;0.50;0.10;;;5.20;99.90;;;;;;6191183;23;20408;-78
2022/11/20 11:07:42;;;;;;;0.50;0.10;;;5.20;99.90;;;;;;6188799;23;20396;-78
2022/11/20 11:10:17;;;;;;;0.50;0.10;;;5.30;99.90;;;;;;6188100;23;20507;-78
2022/11/20 11:12:47;;;;;;;0.87;0.87;;;5.40;99.90;;;;;;6187780;23;20412;-77
2022/11/20 11:15:27;;;;;;;0.50;0.37;;;5.50;99.90;;;;;;6189819;23;20406;-78
2022/11/20 11:17:57;;;;;;;0.50;0.10;;;5.50;99.90;;;;;;6187920;23;20750;-76
2022/11/20 11:20:26;;;;;;;0.50;0.10;;;5.50;99.90;;;;;;6185619;23;20478;-70
2022/11/20 11:22:55;;;;;;;0.50;0.10;;;5.40;99.90;;;;;;6183292;23;20486;-73
2022/11/20 11:25:29;;;;;;;0.50;0.10;;;5.50;99.90;;;;;;6183120;23;20408;-73
2022/11/20 11:28:00;;;;;;;4.30;2.10;;;5.50;99.90;;;;;;6183678;23;20450;-72
2022/11/20 11:30:29;;;;;;;0.50;0.10;;;5.50;99.90;;;;;;6184085;23;20791;-72
2022/11/20 11:33:07;;;;;;;0.50;0.20;;;5.50;99.90;;;;;;6185794;23;20431;-72
2022/11/20 11:35:45;;;;;;;0.50;0.10;;;5.50;99.90;;;;;;6185438;23;20459;-71
2022/11/20 11:38:22;;;;;;;5.10;4.63;;;5.60;99.90;;;;;;6184813;23;20416;-71
2022/11/20 11:40:50;;;;;;;0.50;0.10;;;5.50;99.90;;;;;;6183979;23;20428;-72
2022/11/20 11:46:32;;;;;;;2.10;2.00;;;5.50;99.90;;;;;;6184429;23;20384;-71
2022/11/20 11:49:13;;;;;;;0.50;0.10;;;5.60;99.90;;;;;;6184360;23;20404;-70
2022/11/20 11:51:53;;;;;;;0.50;0.10;;;5.70;99.90;;;;;;6183948;23;20933;-72
2022/11/20 11:54:25;;;;;;;0.60;0.20;;;5.70;99.90;;;;;;6185774;23;20404;-72
2022/11/20 11:56:54;;;;;;;0.50;0.10;;;5.80;99.90;;;;;;6185840;23;20483;-71
2022/11/20 11:59:29;;;;;;;0.50;0.10;;;5.90;99.90;;;;;;6185754;23;20424;-71
2022/11/20 12:02:03;;;;;;;0.50;0.10;;;5.90;99.90;;;;;;6185934;23;20380;-74
2022/11/20 12:04:44;;;;;;;0.50;0.10;;;6.00;99.90;;;;;;6185697;23;20994;-72
2022/11/20 12:07:19;;;;;;;0.50;0.10;;;6.10;99.90;;;;;;6185541;23;20524;-72
2022/11/20 12:10:13;;;;;;;0.60;0.40;;;6.20;99.90;;;;;;6186271;23;20424;-72
2022/11/20 12:12:45;;;;;;;31.20;29.10;;;6.30;99.90;;;;;;6185668;23;20899;-72
2022/11/20 12:15:22;;;;;;;0.60;0.47;;;6.40;99.90;;;;;;6190499;23;20408;-72
2022/11/20 12:17:50;;;;;;;21.80;18.40;;;6.60;99.90;;;;;;6186898;23;20427;-72
2022/11/20 12:20:22;;;;;;;0.50;0.10;;;6.70;99.90;;;;;;6186128;23;20454;-72
2022/11/20 12:22:56;;;;;;;0.50;0.23;;;6.70;99.90;;;;;;6185929;23;20440;-72
2022/11/20 12:25:28;;;;;;;7.50;4.03;;;6.70;99.90;;;;;;6185864;23;20403;-72
2022/11/20 12:28:25;;;;;;;0.50;0.20;;;6.70;99.90;;;;;;6184846;23;20444;-72
2022/11/20 12:31:09;;;;;;;2.37;2.27;;;6.70;99.90;;;;;;6175305;23;20434;-71
2022/11/20 12:33:57;;;;;;;3.70;3.40;;;6.70;99.90;;;;;;6182842;23;20455;-72
2022/11/20 12:36:38;;;;;;;0.50;0.10;;;6.70;99.90;;;;;;6186024;23;20408;-72
2022/11/20 12:39:22;;;;;;;0.50;0.10;;;6.70;99.90;;;;;;6185418;23;20411;-71
2022/11/20 12:45:29;;;;;;;1.27;1.27;;;6.60;99.90;;;;;;6185129;23;20527;-72
2022/11/20 12:48:17;;;;;;;0.50;0.10;;;6.60;99.90;;;;;;6185179;23;20962;-71
2022/11/20 12:50:53;;;;;;;0.50;0.10;;;6.60;99.90;;;;;;6185311;23;20424;-72
2022/11/20 12:53:51;;;;;;;0.50;0.10;;;6.60;99.90;;;;;;6184581;23;20453;-72
2022/11/20 12:56:31;;;;;;;0.50;0.20;;;6.60;99.90;;;;;;6186346;23;20911;-71
2022/11/20 12:59:09;;;;;;;0.50;0.10;;;6.70;99.90;;;;;;6185895;23;20931;-72
2022/11/20 13:01:44;;;;;;;0.50;0.10;;;6.70;99.90;;;;;;6184983;23;20810;-72
2022/11/20 13:04:24;;;;;;;0.50;0.20;;;6.70;99.90;;;;;;6185338;23;20482;-72
2022/11/20 13:06:53;;;;;;;0.50;0.10;;;6.70;99.90;;;;;;6187318;23;20384;-72
2022/11/20 13:09:24;;;;;;;0.77;0.77;;;6.70;99.90;;;;;;6185813;23;20777;-72
2022/11/20 13:11:57;;;;;;;0.93;0.93;;;6.70;99.90;;;;;;6185326;23;20958;-71
2022/11/20 13:14:32;;;;;;;0.50;0.10;;;6.70;99.90;;;;;;6185782;23;20391;-72
2022/11/20 13:17:06;;;;;;;0.50;0.37;;;6.60;99.90;;;;;;6185652;23;20403;-73
2022/11/20 13:19:34;;;;;;;0.50;0.10;;;6.60;99.90;;;;;;6184706;23;20428;-72
2022/11/20 13:22:02;;;;;;;0.50;0.10;;;6.60;99.90;;;;;;6184543;23;20380;-72
2022/11/20 13:24:33;;;;;;;0.50;0.10;;;6.60;99.90;;;;;;6184320;23;20436;-71
2022/11/20 13:27:03;;;;;;;0.50;0.10;;;6.60;99.90;;;;;;6185627;23;20404;-73
2022/11/20 13:29:31;;;;;;;0.50;0.10;;;6.60;99.90;;;;;;6185407;23;20420;-72
2022/11/20 13:32:07;;;;;;;0.50;0.10;;;6.60;99.90;;;;;;6184440;23;20455;-68
2022/11/20 13:34:36;;;;;;;0.50;0.20;;;6.50;99.90;;;;;;6184152;23;20404;-72
2022/11/20 13:37:04;;;;;;;0.50;0.10;;;6.50;99.90;;;;;;6184633;23;20400;-71
2022/11/20 13:39:35;;;;;;;0.50;0.10;;;6.50;99.90;;;;;;6184752;23;20519;-71
2022/11/20 13:42:24;;;;;;;0.50;0.10;;;6.50;99.90;;;;;;6184397;23;20407;-72
2022/11/20 13:44:55;;;;;;;0.50;0.10;;;6.50;99.90;;;;;;6182837;23;20447;-70
2022/11/20 13:47:25;;;;;;;0.50;0.10;;;6.50;99.90;;;;;;6185144;23;20404;-72
2022/11/20 13:49:55;;;;;;;0.50;0.10;;;6.50;99.90;;;;;;6184497;23;20424;-72
2022/11/20 13:52:39;;;;;;;0.50;0.10;;;6.50;99.90;;;;;;6183129;23;20462;-71
2022/11/20 13:55:19;;;;;;;0.50;0.10;;;6.50;99.90;;;;;;6184346;23;20400;-72
2022/11/20 13:58:14;;;;;;;0.50;0.10;;;6.40;99.90;;;;;;6183449;23;20385;-72
2022/11/20 14:00:46;;;;;;;1.90;1.80;;;6.50;99.90;;;;;;6183537;23;20424;-71
2022/11/20 14:03:19;;;;;;;0.50;0.10;;;6.40;99.90;;;;;;6184834;23;20459;-72
2022/11/20 14:06:14;;;;;;;0.50;0.10;;;6.40;99.90;;;;;;6184299;23;20400;-71
2022/11/20 14:08:46;;;;;;;0.50;0.10;;;6.40;99.90;;;;;;6184990;23;20380;-72
2022/11/20 14:11:18;;;;;;;0.50;0.10;;;6.40;99.90;;;;;;6185192;23;20804;-71
2022/11/20 14:14:01;;;;;;;0.50;0.10;;;6.40;99.90;;;;;;6186947;23;20400;-72
2022/11/20 14:16:31;;;;;;;4.53;4.23;;;6.40;99.90;;;;;;6192100;23;20403;-71
2022/11/20 14:19:24;;;;;;;0.50;0.10;;;6.40;99.90;;;;;;6185009;23;20742;-72
2022/11/20 14:21:54;;;;;;;0.50;0.10;;;6.40;99.90;;;;;;6185128;23;20399;-71
2022/11/20 14:24:24;;;;;;;1.17;1.07;;;6.40;99.90;;;;;;6183884;23;20943;-71
2022/11/20 14:26:54;;;;;;;0.50;0.10;;;6.40;99.90;;;;;;6185142;23;20415;-71
2022/11/20 14:29:27;;;;;;;0.50;0.10;;;6.40;99.90;;;;;;6185066;23;20432;-71
2022/11/20 14:31:57;;;;;;;0.50;0.10;;;6.40;99.90;;;;;;6184462;23;20400;-71
2022/11/20 14:34:28;;;;;;;0.50;0.10;;;6.50;99.90;;;;;;6184418;23;20463;-72
2022/11/20 14:36:59;;;;;;;0.50;0.17;;;6.50;99.90;;;;;;6182541;23;20416;-72
2022/11/20 14:39:31;;;;;;;0.50;0.20;;;6.50;99.90;;;;;;6184281;23;20436;-73
2022/11/20 14:42:01;;;;;;;0.50;0.20;;;6.50;99.90;;;;;;6184672;23;20936;-71
2022/11/20 14:44:32;;;;;;;0.50;0.10;;;6.40;99.90;;;;;;6184582;23;20443;-71
2022/11/20 14:47:03;;;;;;;0.50;0.10;;;6.40;99.90;;;;;;6185371;23;20392;-73
2022/11/20 14:49:32;;;;;;;0.50;0.10;;;6.40;99.90;;;;;;6185746;23;20483;-72
2022/11/20 14:52:11;;;;;;;0.50;0.10;;;6.50;99.90;;;;;;6184684;23;20404;-72
2022/11/20 14:54:44;;;;;;;0.50;0.10;;;;;;;;;;6184433;23;20396;-72
2022/11/20 14:57:24;;;;;;;0.50;0.10;;;6.50;99.90;;;;;;6184403;23;20399;-72
2022/11/20 14:59:52;;;;;;;0.80;0.80;;;6.50;99.90;;;;;;6184033;23;20473;-71
2022/11/20 15:02:20;;;;;;;0.50;0.10;;;6.50;99.90;;;;;;6184315;23;20407;-71
2022/11/20 15:04:49;;;;;;;0.50;0.13;;;6.40;99.90;;;;;;6183325;23;20514;-71
2022/11/20 15:07:27;;;;;;;0.50;0.10;;;6.40;99.90;;;;;;6183739;23;20412;-70
2022/11/20 15:10:06;;;;;;;0.50;0.10;;;6.40;99.90;;;;;;6183662;23;20481;-70
2022/11/20 15:12:39;;;;;;;0.50;0.10;;;6.40;99.90;;;;;;6183280;23;20392;-72
2022/11/20 15:15:11;;;;;;;0.50;0.10;;;6.40;99.90;;;;;;6183894;23;20400;-72
2022/11/20 15:17:41;;;;;;;0.50;0.10;;;6.40;99.90;;;;;;6183524;23;20412;-71
2022/11/20 15:20:14;;;;;;;0.50;0.10;;;6.40;99.90;;;;;;6183644;23;20498;-72
2022/11/20 15:22:42;;;;;;;0.50;0.10;;;6.40;99.90;;;;;;6183430;23;20408;-71
2022/11/20 15:25:14;;;;;;;0.50;0.10;;;6.40;99.90;;;;;;6183957;23;20442;-72
2022/11/20 15:27:44;;;;;;;0.50;0.10;;;6.50;99.90;;;;;;6183672;23;20392;-72
2022/11/20 15:30:16;;;;;;;0.50;0.10;;;6.50;99.90;;;;;;6185544;23;20459;-72
2022/11/20 15:32:45;;;;;;;0.50;0.10;;;6.50;99.90;;;;;;6185434;23;20404;-73
2022/11/20 15:35:14;;;;;;;0.50;0.10;;;6.50;99.90;;;;;;6185839;23;20400;-73
2022/11/20 15:37:42;;;;;;;0.50;0.10;;;6.50;99.90;;;;;;6185506;23;20943;-72
2022/11/20 15:40:11;;;;;;;0.50;0.20;;;6.60;99.90;;;;;;6186362;23;20420;-73
2022/11/20 15:43:02;;;;;;;0.50;0.10;;;6.60;99.90;;;;;;6185720;23;20454;-73
2022/11/20 15:45:31;;;;;;;0.50;0.10;;;6.50;99.90;;;;;;6185427;23;20928;-72
2022/11/20 15:48:00;;;;;;;0.50;0.10;;;6.50;99.90;;;;;;6185220;23;20834;-72
2022/11/20 15:50:35;;;;;;;0.50;0.10;;;6.60;99.90;;;;;;6186418;23;20515;-73
2022/11/20 15:53:05;;;;;;;0.50;0.10;;;6.60;99.90;;;;;;6185408;23;20411;-72
2022/11/20 15:55:33;;;;;;;0.50;0.10;;;6.60;99.90;;;;;;6185573;23;20384;-73
2022/11/20 15:58:01;;;;;;;1.93;1.80;;;6.60;99.90;;;;;;6185163;23;20900;-74
2022/11/20 16:00:31;;;;;;;0.50;0.10;;;6.60;99.90;;;;;;6185220;23;20510;-74
2022/11/20 16:02:58;;;;;;;0.50;0.10;;;6.60;99.90;;;;;;6184789;23;20416;-73
2022/11/20 16:05:29;;;;;;;0.50;0.10;;;6.60;99.90;;;;;;6185497;23;20439;-73
2022/11/20 16:07:57;;;;;;;0.50;0.10;;;6.60;99.90;;;;;;6185817;23;20404;-73
2022/11/20 16:10:25;;;;;;;0.50;0.10;;;6.60;99.90;;;;;;6185212;23;20431;-73
2022/11/20 16:15:46;;;;;;;0.50;0.13;;;6.60;99.90;;;;;;6186341;23;20380;-75
2022/11/20 16:18:16;;;;;;;0.50;0.10;;;6.60;99.90;;;;;;6185990;23;20466;-74
2022/11/20 16:20:44;;;;;;;0.50;0.10;;;6.70;99.90;;;;;;6185062;23;20482;-73
2022/11/20 16:23:12;;;;;;;0.50;0.10;;;6.70;99.90;;;;;;6185377;23;20528;-73
2022/11/20 16:25:40;;;;;;;0.50;0.10;;;6.60;99.90;;;;;;6185092;23;20462;-73
2022/11/20 16:28:08;;;;;;;0.50;0.10;;;6.60;99.90;;;;;;6180211;23;20403;-73
2022/11/20 16:30:43;;;;;;;0.50;0.10;;;6.60;99.90;;;;;;6182191;23;20849;-74
2022/11/20 16:33:12;;;;;;;0.50;0.10;;;6.60;99.90;;;;;;6182863;23;20769;-72
2022/11/20 16:35:40;;;;;;;10.20;9.30;;;6.60;99.90;;;;;;6185292;23;20397;-73
2022/11/20 16:38:08;;;;;;;0.50;0.10;;;6.60;99.90;;;;;;6184965;23;20404;-75
2022/11/20 16:40:36;;;;;;;0.50;0.10;;;6.60;99.90;;;;;;6184425;23;20427;-72
2022/11/20 16:43:10;;;;;;;0.50;0.10;;;6.60;99.90;;;;;;6184218;23;20916;-72
2022/11/20 16:45:43;;;;;;;0.50;0.10;;;6.60;99.90;;;;;;6184409;23;20944;-71
2022/11/20 16:48:16;;;;;;;0.50;0.10;;;6.50;99.90;;;;;;6184042;23;20416;-71
2022/11/20 16:50:49;;;;;;;0.50;0.10;;;6.60;99.90;;;;;;6184549;23;20948;-71
2022/11/20 16:53:17;;;;;;;0.50;0.10;;;6.60;99.90;;;;;;6183707;23;20471;-70
2022/11/20 16:55:45;;;;;;;0.50;0.10;;;6.50;99.90;;;;;;6184262;23;20754;-72
2022/11/20 16:58:13;;;;;;;0.57;0.37;;;6.60;99.90;;;;;;6184386;23;20457;-72
2022/11/20 17:00:43;;;;;;;0.50;0.10;;;6.60;99.90;;;;;;6183710;23;20948;-71
2022/11/20 17:03:19;;;;;;;0.50;0.10;;;6.50;99.90;;;;;;6184974;23;20404;-71
2022/11/20 17:05:47;;;;;;;0.50;0.10;;;6.50;99.90;;;;;;6184223;23;20794;-70
2022/11/20 17:08:15;;;;;;;0.50;0.10;;;6.60;99.90;;;;;;6184097;23;20470;-71
2022/11/20 17:10:43;;;;;;;0.50;0.10;;;6.60;99.90;;;;;;6183974;23;20423;-73
2022/11/20 17:13:11;;;;;;;0.50;0.17;;;6.60;99.90;;;;;;6183873;23;20438;-70
2022/11/20 17:15:38;;;;;;;0.50;0.10;;;6.60;99.90;;;;;;6184885;23;20470;-73
2022/11/20 17:18:07;;;;;;;0.50;0.20;;;6.60;99.90;;;;;;6184543;23;20408;-73
2022/11/20 17:20:35;;;;;;;0.50;0.10;;;6.60;99.90;;;;;;6183871;23;20439;-72
2022/11/20 17:23:03;;;;;;;0.50;0.10;;;6.70;99.90;;;;;;6185144;23;20783;-72
2022/11/20 17:25:33;;;;;;;0.50;0.10;;;6.70;99.90;;;;;;6183071;23;20432;-72
2022/11/20 17:28:01;;;;;;;1.03;1.03;;;6.70;99.90;;;;;;6182438;23;20411;-72
2022/11/20 17:30:28;;;;;;;0.50;0.10;;;6.70;99.90;;;;;;6184079;23;20505;-72
2022/11/20 17:32:56;;;;;;;0.50;0.10;;;6.70;99.90;;;;;;6182079;23;20403;-71
2022/11/20 17:35:25;;;;;;;0.50;0.10;;;6.70;99.90;;;;;;6182520;23;20466;-74
2022/11/20 17:37:53;;;;;;;0.50;0.10;;;6.70;99.90;;;;;;6183850;23;20561;-73